Littleton, New Hampshire
Current Conditions -  °F | °C
As of 5:52 PM on Tuesday 25 Nov 2014 (Local Time) from KHIE Reporting Station
Clear Clear  
Wind Chill: 39°   Ceiling: Unl
Heat Index: 42°   Visibility: 10mi
Dew Point: 24°   Wind: 5mph
Humidity: 49%   Direction: 240°WSW
Pressure: 29.94"   Gusts: NA
Location:  44.31°N, 71.77°W
Report Text: KHIE 252252Z AUTO 24004KT 10SM CLR 06/M04 A2994 RMK AO2 SLP144 T00561044
Loading
Personal Weather Stations






























Interactive Weather Map New forecast layout! Learn more

10-Day Weather Forecast

Advertisements
Track Severe Weather on mobile